sensor_id;sensor_type;location;lat;lon;timestamp;P1;durP1;ratioP1;P2;durP2;ratioP2
41297;SDS011;27381;46.032;13.650;2023-01-04T00:00:42;10.20;;;5.50;;
41297;SDS011;27381;46.032;13.650;2023-01-04T00:03:07;7.88;;;4.13;;
41297;SDS011;27381;46.032;13.650;2023-01-04T00:05:32;11.52;;;6.45;;
41297;SDS011;27381;46.032;13.650;2023-01-04T00:07:58;10.95;;;6.53;;
41297;SDS011;27381;46.032;13.650;2023-01-04T00:10:23;9.13;;;5.53;;
41297;SDS011;27381;46.032;13.650;2023-01-04T00:12:49;10.25;;;5.95;;
41297;SDS011;27381;46.032;13.650;2023-01-04T00:15:14;9.57;;;4.88;;
41297;SDS011;27381;46.032;13.650;2023-01-04T00:17:39;10.07;;;5.35;;
41297;SDS011;27381;46.032;13.650;2023-01-04T00:20:05;9.85;;;5.45;;
41297;SDS011;27381;46.032;13.650;2023-01-04T00:22:33;15.95;;;5.88;;
41297;SDS011;27381;46.032;13.650;2023-01-04T00:24:58;12.05;;;5.45;;
41297;SDS011;27381;46.032;13.650;2023-01-04T00:27:24;11.18;;;5.57;;
41297;SDS011;27381;46.032;13.650;2023-01-04T00:29:49;10.70;;;5.53;;
41297;SDS011;27381;46.032;13.650;2023-01-04T00:32:15;11.25;;;5.22;;
41297;SDS011;27381;46.032;13.650;2023-01-04T00:34:40;13.70;;;7.20;;
41297;SDS011;27381;46.032;13.650;2023-01-04T00:37:05;8.52;;;5.95;;
41297;SDS011;27381;46.032;13.650;2023-01-04T00:39:31;9.73;;;5.18;;
41297;SDS011;27381;46.032;13.650;2023-01-04T00:41:56;9.80;;;5.82;;
41297;SDS011;27381;46.032;13.650;2023-01-04T00:44:29;8.73;;;4.28;;
41297;SDS011;27381;46.032;13.650;2023-01-04T00:46:55;11.57;;;5.85;;
41297;SDS011;27381;46.032;13.650;2023-01-04T00:49:21;12.70;;;5.93;;
41297;SDS011;27381;46.032;13.650;2023-01-04T00:51:46;9.20;;;5.25;;
41297;SDS011;27381;46.032;13.650;2023-01-04T00:54:12;10.50;;;6.20;;
41297;SDS011;27381;46.032;13.650;2023-01-04T00:56:38;13.55;;;7.10;;
41297;SDS011;27381;46.032;13.650;2023-01-04T00:59:03;9.38;;;5.30;;
41297;SDS011;27381;46.032;13.650;2023-01-04T01:01:29;13.15;;;4.70;;
41297;SDS011;27381;46.032;13.650;2023-01-04T01:03:57;11.65;;;5.68;;
41297;SDS011;27381;46.032;13.650;2023-01-04T01:06:22;9.85;;;5.60;;
41297;SDS011;27381;46.032;13.650;2023-01-04T01:08:49;8.18;;;4.88;;
41297;SDS011;27381;46.032;13.650;2023-01-04T01:11:14;8.90;;;5.53;;
41297;SDS011;27381;46.032;13.650;2023-01-04T01:13:40;10.27;;;5.10;;
41297;SDS011;27381;46.032;13.650;2023-01-04T01:16:07;8.43;;;5.65;;
41297;SDS011;27381;46.032;13.650;2023-01-04T01:18:33;8.55;;;4.85;;
41297;SDS011;27381;46.032;13.650;2023-01-04T01:20:59;9.68;;;5.78;;
41297;SDS011;27381;46.032;13.650;2023-01-04T01:23:24;9.00;;;4.57;;
41297;SDS011;27381;46.032;13.650;2023-01-04T01:25:49;11.18;;;4.93;;
41297;SDS011;27381;46.032;13.650;2023-01-04T01:28:15;7.22;;;4.85;;
41297;SDS011;27381;46.032;13.650;2023-01-04T01:30:40;10.48;;;5.07;;
41297;SDS011;27381;46.032;13.650;2023-01-04T01:33:06;8.05;;;4.85;;
41297;SDS011;27381;46.032;13.650;2023-01-04T01:35:32;6.93;;;4.00;;
41297;SDS011;27381;46.032;13.650;2023-01-04T01:37:58;7.22;;;4.25;;
41297;SDS011;27381;46.032;13.650;2023-01-04T01:40:23;14.25;;;6.90;;
41297;SDS011;27381;46.032;13.650;2023-01-04T01:42:48;8.65;;;4.53;;
41297;SDS011;27381;46.032;13.650;2023-01-04T01:45:24;9.55;;;5.38;;
41297;SDS011;27381;46.032;13.650;2023-01-04T01:47:51;7.40;;;5.20;;
41297;SDS011;27381;46.032;13.650;2023-01-04T01:50:22;11.10;;;4.80;;
41297;SDS011;27381;46.032;13.650;2023-01-04T01:52:49;8.85;;;4.80;;
41297;SDS011;27381;46.032;13.650;2023-01-04T01:55:16;11.68;;;5.82;;
41297;SDS011;27381;46.032;13.650;2023-01-04T01:57:41;9.18;;;4.20;;
41297;SDS011;27381;46.032;13.650;2023-01-04T02:00:09;11.18;;;5.22;;
41297;SDS011;27381;46.032;13.650;2023-01-04T02:02:41;15.63;;;6.43;;
41297;SDS011;27381;46.032;13.650;2023-01-04T02:05:08;11.18;;;5.97;;
41297;SDS011;27381;46.032;13.650;2023-01-04T02:07:34;7.30;;;4.57;;
41297;SDS011;27381;46.032;13.650;2023-01-04T02:10:00;9.55;;;5.35;;
41297;SDS011;27381;46.032;13.650;2023-01-04T02:12:26;10.50;;;5.93;;
41297;SDS011;27381;46.032;13.650;2023-01-04T02:14:51;10.88;;;4.10;;
41297;SDS011;27381;46.032;13.650;2023-01-04T02:17:30;9.45;;;3.65;;
41297;SDS011;27381;46.032;13.650;2023-01-04T02:28:46;6.78;;;4.10;;
41297;SDS011;27381;46.032;13.650;2023-01-04T02:33:41;10.38;;;5.18;;
41297;SDS011;27381;46.032;13.650;2023-01-04T02:36:13;6.35;;;3.83;;
41297;SDS011;27381;46.032;13.650;2023-01-04T02:38:47;7.65;;;4.95;;
41297;SDS011;27381;46.032;13.650;2023-01-04T02:41:27;8.35;;;4.80;;
41297;SDS011;27381;46.032;13.650;2023-01-04T02:46:50;9.00;;;4.60;;
41297;SDS011;27381;46.032;13.650;2023-01-04T02:49:17;6.57;;;4.32;;
41297;SDS011;27381;46.032;13.650;2023-01-04T02:52:01;8.18;;;4.35;;
41297;SDS011;27381;46.032;13.650;2023-01-04T02:54:27;9.55;;;4.78;;
41297;SDS011;27381;46.032;13.650;2023-01-04T03:05:08;6.63;;;3.42;;
41297;SDS011;27381;46.032;13.650;2023-01-04T03:10:38;11.75;;;3.80;;
41297;SDS011;27381;46.032;13.650;2023-01-04T03:13:16;6.20;;;3.65;;
41297;SDS011;27381;46.032;13.650;2023-01-04T03:15:43;6.10;;;3.17;;
41297;SDS011;27381;46.032;13.650;2023-01-04T03:18:17;4.20;;;2.83;;
41297;SDS011;27381;46.032;13.650;2023-01-04T03:20:44;6.78;;;3.03;;
41297;SDS011;27381;46.032;13.650;2023-01-04T03:23:11;5.45;;;2.72;;
41297;SDS011;27381;46.032;13.650;2023-01-04T03:26:04;6.28;;;4.55;;
41297;SDS011;27381;46.032;13.650;2023-01-04T03:28:48;5.90;;;3.25;;
41297;SDS011;27381;46.032;13.650;2023-01-04T03:31:33;6.63;;;3.78;;
41297;SDS011;27381;46.032;13.650;2023-01-04T03:34:20;4.30;;;2.90;;
41297;SDS011;27381;46.032;13.650;2023-01-04T03:39:33;6.50;;;3.70;;
41297;SDS011;27381;46.032;13.650;2023-01-04T03:42:19;5.18;;;3.03;;
41297;SDS011;27381;46.032;13.650;2023-01-04T03:47:55;4.63;;;2.40;;
41297;SDS011;27381;46.032;13.650;2023-01-04T03:50:40;6.30;;;2.85;;
41297;SDS011;27381;46.032;13.650;2023-01-04T03:53:08;6.53;;;3.75;;
41297;SDS011;27381;46.032;13.650;2023-01-04T03:55:35;5.30;;;2.72;;
41297;SDS011;27381;46.032;13.650;2023-01-04T03:58:01;7.90;;;3.92;;
41297;SDS011;27381;46.032;13.650;2023-01-04T04:00:27;7.25;;;2.90;;
41297;SDS011;27381;46.032;13.650;2023-01-04T04:02:52;4.80;;;3.17;;
41297;SDS011;27381;46.032;13.650;2023-01-04T04:05:19;4.97;;;3.00;;
41297;SDS011;27381;46.032;13.650;2023-01-04T04:08:03;5.00;;;2.55;;
41297;SDS011;27381;46.032;13.650;2023-01-04T04:10:47;6.82;;;4.00;;
41297;SDS011;27381;46.032;13.650;2023-01-04T04:13:12;4.50;;;2.85;;
41297;SDS011;27381;46.032;13.650;2023-01-04T04:15:38;4.53;;;2.88;;
41297;SDS011;27381;46.032;13.650;2023-01-04T04:18:04;5.13;;;2.90;;
41297;SDS011;27381;46.032;13.650;2023-01-04T04:20:29;5.05;;;2.95;;
41297;SDS011;27381;46.032;13.650;2023-01-04T04:22:54;7.07;;;2.90;;
41297;SDS011;27381;46.032;13.650;2023-01-04T04:25:20;4.65;;;2.65;;
41297;SDS011;27381;46.032;13.650;2023-01-04T04:27:45;6.32;;;3.03;;
41297;SDS011;27381;46.032;13.650;2023-01-04T04:30:10;4.18;;;2.85;;
41297;SDS011;27381;46.032;13.650;2023-01-04T04:32:36;4.60;;;2.63;;
41297;SDS011;27381;46.032;13.650;2023-01-04T04:35:01;11.57;;;3.45;;
41297;SDS011;27381;46.032;13.650;2023-01-04T04:37:27;4.40;;;2.47;;
41297;SDS011;27381;46.032;13.650;2023-01-04T04:39:55;6.00;;;3.50;;
41297;SDS011;27381;46.032;13.650;2023-01-04T04:42:20;5.57;;;2.83;;
41297;SDS011;27381;46.032;13.650;2023-01-04T04:44:45;7.75;;;3.30;;
41297;SDS011;27381;46.032;13.650;2023-01-04T04:47:11;4.65;;;3.00;;
41297;SDS011;27381;46.032;13.650;2023-01-04T04:49:36;9.95;;;3.15;;
41297;SDS011;27381;46.032;13.650;2023-01-04T04:52:02;5.43;;;2.90;;
41297;SDS011;27381;46.032;13.650;2023-01-04T04:54:27;4.47;;;2.85;;
41297;SDS011;27381;46.032;13.650;2023-01-04T04:56:52;6.10;;;3.55;;
41297;SDS011;27381;46.032;13.650;2023-01-04T04:59:18;7.57;;;3.83;;
41297;SDS011;27381;46.032;13.650;2023-01-04T05:01:43;7.30;;;2.65;;
41297;SDS011;27381;46.032;13.650;2023-01-04T05:04:09;7.65;;;4.43;;
41297;SDS011;27381;46.032;13.650;2023-01-04T05:06:40;7.97;;;3.80;;
41297;SDS011;27381;46.032;13.650;2023-01-04T05:09:06;11.18;;;4.30;;
41297;SDS011;27381;46.032;13.650;2023-01-04T05:11:32;7.15;;;3.00;;
41297;SDS011;27381;46.032;13.650;2023-01-04T05:14:16;5.68;;;2.85;;
41297;SDS011;27381;46.032;13.650;2023-01-04T05:16:41;6.53;;;4.18;;
41297;SDS011;27381;46.032;13.650;2023-01-04T05:19:06;4.10;;;2.53;;
41297;SDS011;27381;46.032;13.650;2023-01-04T05:21:32;5.07;;;3.17;;
41297;SDS011;27381;46.032;13.650;2023-01-04T05:23:57;9.02;;;4.05;;
41297;SDS011;27381;46.032;13.650;2023-01-04T05:26:22;3.55;;;2.17;;
41297;SDS011;27381;46.032;13.650;2023-01-04T05:28:48;5.30;;;3.33;;
41297;SDS011;27381;46.032;13.650;2023-01-04T05:31:13;2.97;;;2.03;;
41297;SDS011;27381;46.032;13.650;2023-01-04T05:33:39;3.10;;;2.58;;
41297;SDS011;27381;46.032;13.650;2023-01-04T05:36:04;3.97;;;2.33;;
41297;SDS011;27381;46.032;13.650;2023-01-04T05:38:29;7.40;;;3.05;;
41297;SDS011;27381;46.032;13.650;2023-01-04T05:40:55;3.40;;;3.08;;
41297;SDS011;27381;46.032;13.650;2023-01-04T05:43:21;4.90;;;1.83;;
41297;SDS011;27381;46.032;13.650;2023-01-04T05:45:51;4.65;;;2.55;;
41297;SDS011;27381;46.032;13.650;2023-01-04T05:48:17;6.10;;;2.97;;
41297;SDS011;27381;46.032;13.650;2023-01-04T05:50:42;6.63;;;2.85;;
41297;SDS011;27381;46.032;13.650;2023-01-04T05:53:10;2.92;;;2.30;;
41297;SDS011;27381;46.032;13.650;2023-01-04T05:55:35;2.78;;;2.10;;
41297;SDS011;27381;46.032;13.650;2023-01-04T05:58:00;5.57;;;2.20;;
41297;SDS011;27381;46.032;13.650;2023-01-04T06:00:26;3.17;;;2.17;;
41297;SDS011;27381;46.032;13.650;2023-01-04T06:02:51;2.13;;;1.65;;
41297;SDS011;27381;46.032;13.650;2023-01-04T06:05:19;3.15;;;1.90;;
41297;SDS011;27381;46.032;13.650;2023-01-04T06:07:45;2.70;;;1.90;;
41297;SDS011;27381;46.032;13.650;2023-01-04T06:10:13;6.90;;;2.22;;
41297;SDS011;27381;46.032;13.650;2023-01-04T06:12:39;5.43;;;2.03;;
41297;SDS011;27381;46.032;13.650;2023-01-04T06:15:05;3.47;;;2.22;;
41297;SDS011;27381;46.032;13.650;2023-01-04T06:17:31;2.20;;;1.85;;
41297;SDS011;27381;46.032;13.650;2023-01-04T06:19:57;4.40;;;1.85;;
41297;SDS011;27381;46.032;13.650;2023-01-04T06:22:22;3.85;;;2.63;;
41297;SDS011;27381;46.032;13.650;2023-01-04T06:24:48;2.88;;;1.48;;
41297;SDS011;27381;46.032;13.650;2023-01-04T06:27:13;3.00;;;1.67;;
41297;SDS011;27381;46.032;13.650;2023-01-04T06:29:39;3.92;;;1.98;;
41297;SDS011;27381;46.032;13.650;2023-01-04T06:32:05;2.78;;;1.83;;
41297;SDS011;27381;46.032;13.650;2023-01-04T06:34:30;2.63;;;1.55;;
41297;SDS011;27381;46.032;13.650;2023-01-04T06:36:56;4.55;;;1.60;;
41297;SDS011;27381;46.032;13.650;2023-01-04T06:39:21;2.55;;;1.45;;
41297;SDS011;27381;46.032;13.650;2023-01-04T06:41:47;3.05;;;1.95;;
41297;SDS011;27381;46.032;13.650;2023-01-04T06:44:12;1.98;;;1.58;;
41297;SDS011;27381;46.032;13.650;2023-01-04T06:46:38;2.47;;;1.80;;
41297;SDS011;27381;46.032;13.650;2023-01-04T06:49:05;3.05;;;1.73;;
41297;SDS011;27381;46.032;13.650;2023-01-04T06:51:30;3.10;;;1.88;;
41297;SDS011;27381;46.032;13.650;2023-01-04T06:53:56;1.63;;;1.35;;
41297;SDS011;27381;46.032;13.650;2023-01-04T06:56:21;1.83;;;1.65;;
41297;SDS011;27381;46.032;13.650;2023-01-04T06:58:46;2.40;;;1.35;;
41297;SDS011;27381;46.032;13.650;2023-01-04T07:01:12;2.20;;;1.65;;
41297;SDS011;27381;46.032;13.650;2023-01-04T07:03:37;2.22;;;1.05;;
41297;SDS011;27381;46.032;13.650;2023-01-04T07:06:04;2.78;;;2.08;;
41297;SDS011;27381;46.032;13.650;2023-01-04T07:08:30;1.95;;;1.08;;
41297;SDS011;27381;46.032;13.650;2023-01-04T07:10:55;3.30;;;1.90;;
41297;SDS011;27381;46.032;13.650;2023-01-04T07:13:21;1.88;;;1.30;;
41297;SDS011;27381;46.032;13.650;2023-01-04T07:15:47;1.40;;;1.30;;
41297;SDS011;27381;46.032;13.650;2023-01-04T07:18:12;1.30;;;1.20;;
41297;SDS011;27381;46.032;13.650;2023-01-04T07:20:38;1.63;;;1.38;;
41297;SDS011;27381;46.032;13.650;2023-01-04T07:23:04;2.10;;;1.73;;
41297;SDS011;27381;46.032;13.650;2023-01-04T07:25:29;4.20;;;1.65;;
41297;SDS011;27381;46.032;13.650;2023-01-04T07:27:54;2.83;;;1.45;;
41297;SDS011;27381;46.032;13.650;2023-01-04T07:30:20;2.38;;;1.55;;
41297;SDS011;27381;46.032;13.650;2023-01-04T07:32:46;3.58;;;1.80;;
41297;SDS011;27381;46.032;13.650;2023-01-04T07:35:11;1.45;;;1.00;;
41297;SDS011;27381;46.032;13.650;2023-01-04T07:37:37;1.20;;;1.15;;
41297;SDS011;27381;46.032;13.650;2023-01-04T07:40:02;2.72;;;1.30;;
41297;SDS011;27381;46.032;13.650;2023-01-04T07:42:28;2.35;;;1.95;;
41297;SDS011;27381;46.032;13.650;2023-01-04T07:44:53;2.15;;;1.42;;
41297;SDS011;27381;46.032;13.650;2023-01-04T07:47:18;1.95;;;1.83;;
41297;SDS011;27381;46.032;13.650;2023-01-04T07:49:44;2.83;;;2.22;;
41297;SDS011;27381;46.032;13.650;2023-01-04T07:52:13;1.83;;;1.20;;
41297;SDS011;27381;46.032;13.650;2023-01-04T07:54:38;1.17;;;1.08;;
41297;SDS011;27381;46.032;13.650;2023-01-04T07:57:03;11.15;;;3.47;;
41297;SDS011;27381;46.032;13.650;2023-01-04T07:59:30;4.00;;;2.30;;
41297;SDS011;27381;46.032;13.650;2023-01-04T08:01:55;1.55;;;1.25;;
41297;SDS011;27381;46.032;13.650;2023-01-04T08:04:22;3.60;;;1.55;;
41297;SDS011;27381;46.032;13.650;2023-01-04T08:06:48;3.63;;;1.88;;
41297;SDS011;27381;46.032;13.650;2023-01-04T08:09:13;4.53;;;2.55;;
41297;SDS011;27381;46.032;13.650;2023-01-04T08:11:39;1.65;;;1.52;;
41297;SDS011;27381;46.032;13.650;2023-01-04T08:14:05;1.27;;;1.17;;
41297;SDS011;27381;46.032;13.650;2023-01-04T08:16:35;3.00;;;2.22;;
41297;SDS011;27381;46.032;13.650;2023-01-04T08:19:02;2.00;;;1.83;;
41297;SDS011;27381;46.032;13.650;2023-01-04T08:21:28;2.22;;;1.30;;
41297;SDS011;27381;46.032;13.650;2023-01-04T08:23:55;2.40;;;1.77;;
41297;SDS011;27381;46.032;13.650;2023-01-04T08:26:20;3.03;;;1.55;;
41297;SDS011;27381;46.032;13.650;2023-01-04T08:28:46;6.30;;;2.95;;
41297;SDS011;27381;46.032;13.650;2023-01-04T08:31:16;2.20;;;1.33;;
41297;SDS011;27381;46.032;13.650;2023-01-04T08:33:42;2.58;;;1.83;;
41297;SDS011;27381;46.032;13.650;2023-01-04T08:38:36;1.95;;;1.13;;
41297;SDS011;27381;46.032;13.650;2023-01-04T08:41:01;2.20;;;1.50;;
41297;SDS011;27381;46.032;13.650;2023-01-04T08:43:27;2.08;;;1.52;;
41297;SDS011;27381;46.032;13.650;2023-01-04T08:45:52;2.47;;;1.48;;
41297;SDS011;27381;46.032;13.650;2023-01-04T08:48:17;3.42;;;1.42;;
41297;SDS011;27381;46.032;13.650;2023-01-04T08:50:43;1.45;;;1.08;;
41297;SDS011;27381;46.032;13.650;2023-01-04T08:53:09;2.08;;;1.27;;
41297;SDS011;27381;46.032;13.650;2023-01-04T08:55:35;1.55;;;1.00;;
41297;SDS011;27381;46.032;13.650;2023-01-04T08:58:00;1.33;;;1.20;;
41297;SDS011;27381;46.032;13.650;2023-01-04T09:00:27;1.45;;;1.35;;
41297;SDS011;27381;46.032;13.650;2023-01-04T09:02:53;2.47;;;1.77;;
41297;SDS011;27381;46.032;13.650;2023-01-04T09:05:19;3.13;;;1.50;;
41297;SDS011;27381;46.032;13.650;2023-01-04T09:07:44;2.05;;;1.15;;
41297;SDS011;27381;46.032;13.650;2023-01-04T09:10:09;2.63;;;1.40;;
41297;SDS011;27381;46.032;13.650;2023-01-04T09:12:35;1.27;;;1.15;;
41297;SDS011;27381;46.032;13.650;2023-01-04T09:15:01;1.95;;;1.52;;
41297;SDS011;27381;46.032;13.650;2023-01-04T09:17:27;4.78;;;1.45;;
41297;SDS011;27381;46.032;13.650;2023-01-04T09:19:52;1.08;;;0.98;;
41297;SDS011;27381;46.032;13.650;2023-01-04T09:22:18;2.28;;;1.30;;
41297;SDS011;27381;46.032;13.650;2023-01-04T09:24:43;1.95;;;1.40;;
41297;SDS011;27381;46.032;13.650;2023-01-04T09:27:09;4.10;;;1.65;;
41297;SDS011;27381;46.032;13.650;2023-01-04T09:29:34;1.48;;;1.38;;
41297;SDS011;27381;46.032;13.650;2023-01-04T09:32:00;2.45;;;1.45;;
41297;SDS011;27381;46.032;13.650;2023-01-04T09:34:25;6.00;;;1.73;;
41297;SDS011;27381;46.032;13.650;2023-01-04T09:36:51;2.55;;;1.73;;
41297;SDS011;27381;46.032;13.650;2023-01-04T09:39:16;2.75;;;1.52;;
41297;SDS011;27381;46.032;13.650;2023-01-04T09:42:02;2.05;;;1.00;;
41297;SDS011;27381;46.032;13.650;2023-01-04T09:47:00;2.25;;;1.48;;
41297;SDS011;27381;46.032;13.650;2023-01-04T09:49:40;1.35;;;0.90;;
41297;SDS011;27381;46.032;13.650;2023-01-04T09:52:10;1.52;;;1.42;;
41297;SDS011;27381;46.032;13.650;2023-01-04T09:54:48;1.52;;;1.40;;
41297;SDS011;27381;46.032;13.650;2023-01-04T09:57:34;3.53;;;1.55;;
41297;SDS011;27381;46.032;13.650;2023-01-04T10:02:42;1.33;;;1.10;;
41297;SDS011;27381;46.032;13.650;2023-01-04T10:05:42;7.20;;;1.75;;
41297;SDS011;27381;46.032;13.650;2023-01-04T10:08:02;5.72;;;1.52;;
41297;SDS011;27381;46.032;13.650;2023-01-04T10:21:39;1.85;;;1.42;;
41297;SDS011;27381;46.032;13.650;2023-01-04T10:26:41;0.85;;;0.82;;
41297;SDS011;27381;46.032;13.650;2023-01-04T10:32:00;1.80;;;1.13;;
41297;SDS011;27381;46.032;13.650;2023-01-04T10:34:28;2.10;;;1.65;;
41297;SDS011;27381;46.032;13.650;2023-01-04T10:36:58;1.40;;;1.13;;
41297;SDS011;27381;46.032;13.650;2023-01-04T10:39:25;1.33;;;0.90;;
41297;SDS011;27381;46.032;13.650;2023-01-04T10:41:52;1.05;;;0.80;;
41297;SDS011;27381;46.032;13.650;2023-01-04T10:44:22;2.28;;;1.25;;
41297;SDS011;27381;46.032;13.650;2023-01-04T10:52:33;0.95;;;0.75;;
41297;SDS011;27381;46.032;13.650;2023-01-04T10:57:25;0.77;;;0.63;;
41297;SDS011;27381;46.032;13.650;2023-01-04T10:59:55;1.75;;;1.60;;
41297;SDS011;27381;46.032;13.650;2023-01-04T11:02:27;1.08;;;0.98;;
41297;SDS011;27381;46.032;13.650;2023-01-04T11:07:38;2.10;;;1.90;;
41297;SDS011;27381;46.032;13.650;2023-01-04T11:10:09;2.65;;;1.05;;
41297;SDS011;27381;46.032;13.650;2023-01-04T11:12:37;1.77;;;1.23;;
41297;SDS011;27381;46.032;13.650;2023-01-04T11:15:02;1.45;;;1.15;;
41297;SDS011;27381;46.032;13.650;2023-01-04T11:17:28;7.53;;;1.40;;
41297;SDS011;27381;46.032;13.650;2023-01-04T11:19:55;1.83;;;1.17;;
41297;SDS011;27381;46.032;13.650;2023-01-04T11:22:22;1.85;;;1.10;;
41297;SDS011;27381;46.032;13.650;2023-01-04T11:24:50;1.95;;;1.50;;
41297;SDS011;27381;46.032;13.650;2023-01-04T11:27:19;1.45;;;1.05;;
41297;SDS011;27381;46.032;13.650;2023-01-04T11:29:50;1.45;;;1.33;;
41297;SDS011;27381;46.032;13.650;2023-01-04T11:34:49;3.80;;;1.65;;
41297;SDS011;27381;46.032;13.650;2023-01-04T11:37:24;3.28;;;1.80;;
41297;SDS011;27381;46.032;13.650;2023-01-04T11:39:50;3.08;;;1.42;;
41297;SDS011;27381;46.032;13.650;2023-01-04T11:42:19;1.73;;;1.42;;
41297;SDS011;27381;46.032;13.650;2023-01-04T11:44:47;2.88;;;1.98;;
41297;SDS011;27381;46.032;13.650;2023-01-04T11:47:21;1.85;;;0.95;;
41297;SDS011;27381;46.032;13.650;2023-01-04T11:49:52;2.38;;;1.42;;
41297;SDS011;27381;46.032;13.650;2023-01-04T11:52:28;1.25;;;1.00;;
41297;SDS011;27381;46.032;13.650;2023-01-04T11:54:55;2.03;;;1.40;;
41297;SDS011;27381;46.032;13.650;2023-01-04T11:57:20;1.55;;;0.90;;
41297;SDS011;27381;46.032;13.650;2023-01-04T12:00:05;2.35;;;1.15;;
41297;SDS011;27381;46.032;13.650;2023-01-04T12:02:31;5.47;;;1.48;;
41297;SDS011;27381;46.032;13.650;2023-01-04T12:04:57;1.83;;;1.08;;
41297;SDS011;27381;46.032;13.650;2023-01-04T12:07:32;2.15;;;1.13;;
41297;SDS011;27381;46.032;13.650;2023-01-04T12:09:58;1.33;;;1.23;;
41297;SDS011;27381;46.032;13.650;2023-01-04T12:12:29;3.08;;;2.28;;
41297;SDS011;27381;46.032;13.650;2023-01-04T12:14:55;2.60;;;1.20;;
41297;SDS011;27381;46.032;13.650;2023-01-04T12:17:27;1.58;;;0.93;;
41297;SDS011;27381;46.032;13.650;2023-01-04T12:19:55;1.67;;;1.08;;
41297;SDS011;27381;46.032;13.650;2023-01-04T12:22:37;1.20;;;1.10;;
41297;SDS011;27381;46.032;13.650;2023-01-04T12:25:03;1.38;;;1.08;;
41297;SDS011;27381;46.032;13.650;2023-01-04T12:27:30;2.53;;;1.60;;
41297;SDS011;27381;46.032;13.650;2023-01-04T12:30:03;2.00;;;1.00;;
41297;SDS011;27381;46.032;13.650;2023-01-04T12:34:55;4.13;;;1.50;;
41297;SDS011;27381;46.032;13.650;2023-01-04T12:45:40;1.80;;;0.90;;
41297;SDS011;27381;46.032;13.650;2023-01-04T12:51:16;2.17;;;1.33;;
41297;SDS011;27381;46.032;13.650;2023-01-04T12:53:48;2.00;;;1.35;;
41297;SDS011;27381;46.032;13.650;2023-01-04T12:56:14;1.45;;;1.00;;
41297;SDS011;27381;46.032;13.650;2023-01-04T12:58:39;1.45;;;0.82;;
41297;SDS011;27381;46.032;13.650;2023-01-04T13:01:07;0.75;;;0.73;;
41297;SDS011;27381;46.032;13.650;2023-01-04T13:03:34;22.92;;;14.30;;
41297;SDS011;27381;46.032;13.650;2023-01-04T13:06:00;3.20;;;2.63;;
41297;SDS011;27381;46.032;13.650;2023-01-04T13:08:27;2.92;;;1.00;;
41297;SDS011;27381;46.032;13.650;2023-01-04T13:10:57;11.68;;;2.72;;
41297;SDS011;27381;46.032;13.650;2023-01-04T13:13:36;8.55;;;2.30;;
41297;SDS011;27381;46.032;13.650;2023-01-04T13:18:41;20.30;;;10.70;;
41297;SDS011;27381;46.032;13.650;2023-01-04T13:23:39;2.22;;;1.42;;
41297;SDS011;27381;46.032;13.650;2023-01-04T13:28:48;2.33;;;1.65;;
41297;SDS011;27381;46.032;13.650;2023-01-04T13:31:14;1.98;;;1.33;;
41297;SDS011;27381;46.032;13.650;2023-01-04T13:33:44;4.97;;;1.52;;
41297;SDS011;27381;46.032;13.650;2023-01-04T13:36:10;1.40;;;1.20;;
41297;SDS011;27381;46.032;13.650;2023-01-04T13:38:38;1.42;;;1.10;;
41297;SDS011;27381;46.032;13.650;2023-01-04T13:41:04;7.53;;;1.00;;
41297;SDS011;27381;46.032;13.650;2023-01-04T13:46:28;2.05;;;1.00;;
41297;SDS011;27381;46.032;13.650;2023-01-04T13:48:56;1.58;;;1.10;;
41297;SDS011;27381;46.032;13.650;2023-01-04T13:51:24;1.73;;;1.25;;
41297;SDS011;27381;46.032;13.650;2023-01-04T13:53:51;1.45;;;1.13;;
41297;SDS011;27381;46.032;13.650;2023-01-04T13:56:18;1.95;;;1.42;;
41297;SDS011;27381;46.032;13.650;2023-01-04T13:58:44;1.80;;;0.90;;
41297;SDS011;27381;46.032;13.650;2023-01-04T14:03:39;1.67;;;0.98;;
41297;SDS011;27381;46.032;13.650;2023-01-04T14:08:34;1.40;;;1.30;;
41297;SDS011;27381;46.032;13.650;2023-01-04T14:11:01;1.75;;;0.90;;
41297;SDS011;27381;46.032;13.650;2023-01-04T14:13:27;1.13;;;0.90;;
41297;SDS011;27381;46.032;13.650;2023-01-04T14:16:13;1.63;;;1.05;;
41297;SDS011;27381;46.032;13.650;2023-01-04T14:18:38;3.60;;;1.17;;
41297;SDS011;27381;46.032;13.650;2023-01-04T14:21:04;1.33;;;0.85;;
41297;SDS011;27381;46.032;13.650;2023-01-04T14:23:38;3.88;;;1.83;;
41297;SDS011;27381;46.032;13.650;2023-01-04T14:26:03;1.10;;;1.00;;
41297;SDS011;27381;46.032;13.650;2023-01-04T14:28:33;1.30;;;1.10;;
41297;SDS011;27381;46.032;13.650;2023-01-04T14:41:10;0.60;;;0.60;;
41297;SDS011;27381;46.032;13.650;2023-01-04T14:43:42;2.28;;;0.93;;
41297;SDS011;27381;46.032;13.650;2023-01-04T14:46:09;4.82;;;0.93;;
41297;SDS011;27381;46.032;13.650;2023-01-04T14:48:35;1.27;;;1.05;;
41297;SDS011;27381;46.032;13.650;2023-01-04T14:51:02;1.70;;;1.10;;
41297;SDS011;27381;46.032;13.650;2023-01-04T14:53:29;3.63;;;1.23;;
41297;SDS011;27381;46.032;13.650;2023-01-04T14:55:56;0.90;;;0.85;;
41297;SDS011;27381;46.032;13.650;2023-01-04T14:58:22;1.13;;;1.05;;
41297;SDS011;27381;46.032;13.650;2023-01-04T15:00:48;0.77;;;0.73;;
41297;SDS011;27381;46.032;13.650;2023-01-04T15:03:14;2.05;;;0.90;;
41297;SDS011;27381;46.032;13.650;2023-01-04T15:05:43;1.55;;;1.02;;
41297;SDS011;27381;46.032;13.650;2023-01-04T15:08:10;2.03;;;1.40;;
41297;SDS011;27381;46.032;13.650;2023-01-04T15:10:37;1.85;;;1.17;;
41297;SDS011;27381;46.032;13.650;2023-01-04T15:13:02;1.38;;;0.95;;
41297;SDS011;27381;46.032;13.650;2023-01-04T15:15:28;2.35;;;1.88;;
41297;SDS011;27381;46.032;13.650;2023-01-04T15:17:54;1.63;;;1.15;;
41297;SDS011;27381;46.032;13.650;2023-01-04T15:20:19;1.13;;;1.10;;
41297;SDS011;27381;46.032;13.650;2023-01-04T15:22:45;5.20;;;2.45;;
41297;SDS011;27381;46.032;13.650;2023-01-04T15:25:10;1.48;;;1.23;;
41297;SDS011;27381;46.032;13.650;2023-01-04T15:27:36;1.98;;;0.90;;
41297;SDS011;27381;46.032;13.650;2023-01-04T15:30:02;2.65;;;1.20;;
41297;SDS011;27381;46.032;13.650;2023-01-04T15:32:30;3.17;;;1.10;;
41297;SDS011;27381;46.032;13.650;2023-01-04T15:34:55;1.65;;;1.30;;
41297;SDS011;27381;46.032;13.650;2023-01-04T15:37:21;4.03;;;1.45;;
41297;SDS011;27381;46.032;13.650;2023-01-04T15:39:47;2.00;;;1.10;;
41297;SDS011;27381;46.032;13.650;2023-01-04T15:42:12;1.30;;;1.08;;
41297;SDS011;27381;46.032;13.650;2023-01-04T15:44:56;1.73;;;0.93;;
41297;SDS011;27381;46.032;13.650;2023-01-04T15:47:22;1.42;;;1.33;;
41297;SDS011;27381;46.032;13.650;2023-01-04T15:49:47;3.28;;;1.40;;
41297;SDS011;27381;46.032;13.650;2023-01-04T15:52:13;1.73;;;0.82;;
41297;SDS011;27381;46.032;13.650;2023-01-04T15:54:40;0.93;;;0.93;;
41297;SDS011;27381;46.032;13.650;2023-01-04T15:57:06;1.92;;;1.27;;
41297;SDS011;27381;46.032;13.650;2023-01-04T15:59:31;2.25;;;1.35;;
41297;SDS011;27381;46.032;13.650;2023-01-04T16:01:57;1.80;;;1.17;;
41297;SDS011;27381;46.032;13.650;2023-01-04T16:04:23;2.13;;;1.38;;
41297;SDS011;27381;46.032;13.650;2023-01-04T16:06:49;1.05;;;0.95;;
41297;SDS011;27381;46.032;13.650;2023-01-04T16:09:15;1.60;;;1.08;;
41297;SDS011;27381;46.032;13.650;2023-01-04T16:11:40;1.45;;;1.17;;
41297;SDS011;27381;46.032;13.650;2023-01-04T16:14:26;3.15;;;1.13;;
41297;SDS011;27381;46.032;13.650;2023-01-04T16:16:51;1.77;;;1.45;;
41297;SDS011;27381;46.032;13.650;2023-01-04T16:19:17;1.98;;;1.38;;
41297;SDS011;27381;46.032;13.650;2023-01-04T16:21:42;2.00;;;1.45;;
41297;SDS011;27381;46.032;13.650;2023-01-04T16:24:08;1.75;;;1.55;;